createdAt,value
2018-07-24T00:01:39.116Z,24.50
2018-07-24T00:04:07.518Z,25.20
2018-07-24T00:06:35.835Z,23.03
2018-07-24T00:09:06.141Z,25.00
2018-07-24T00:11:34.738Z,25.30
2018-07-24T00:14:03.124Z,24.90
2018-07-24T00:16:31.873Z,24.43
2018-07-24T00:19:00.795Z,25.17
2018-07-24T00:21:28.917Z,25.50
2018-07-24T00:23:57.721Z,25.27
2018-07-24T00:26:26.494Z,26.70
2018-07-24T00:28:54.923Z,28.30
2018-07-24T00:31:23.357Z,25.97
2018-07-24T00:33:52.058Z,25.00
2018-07-24T00:36:20.502Z,23.40
2018-07-24T00:38:49.138Z,26.83
2018-07-24T00:41:17.574Z,26.50
2018-07-24T00:43:46.076Z,25.50
2018-07-24T00:46:14.477Z,26.27
2018-07-24T00:48:42.794Z,27.40
2018-07-24T00:51:11.230Z,26.27
2018-07-24T00:53:39.659Z,28.33
2018-07-24T00:56:08.124Z,27.40
2018-07-24T00:58:36.496Z,28.37
2018-07-24T01:01:05.059Z,27.33
2018-07-24T01:03:33.442Z,27.03
2018-07-24T01:06:01.799Z,28.90
2018-07-24T01:08:30.304Z,29.70
2018-07-24T01:10:58.682Z,28.20
2018-07-24T01:13:27.112Z,29.70
2018-07-24T01:15:55.535Z,29.67
2018-07-24T01:18:23.986Z,29.93
2018-07-24T01:20:52.380Z,27.00
2018-07-24T01:23:20.809Z,26.30
2018-07-24T01:25:49.218Z,27.33
2018-07-24T01:28:17.595Z,28.00
2018-07-24T01:30:46.021Z,28.83
2018-07-24T01:33:14.396Z,26.90
2018-07-24T01:35:42.864Z,27.47
2018-07-24T01:38:11.198Z,25.97
2018-07-24T01:40:39.520Z,28.83
2018-07-24T01:43:07.981Z,26.67
2018-07-24T01:45:36.464Z,25.10
2018-07-24T01:48:04.856Z,28.83
2018-07-24T01:50:33.298Z,25.70
2018-07-24T01:53:01.776Z,26.33
2018-07-24T01:55:30.280Z,28.57
2018-07-24T01:57:58.692Z,27.33
2018-07-24T02:00:27.081Z,28.53
2018-07-24T02:02:55.552Z,28.00
2018-07-24T02:05:23.993Z,28.93
2018-07-24T02:07:52.369Z,27.90
2018-07-24T02:10:20.768Z,25.87
2018-07-24T02:12:49.155Z,25.43
2018-07-24T02:15:17.629Z,26.83
2018-07-24T02:17:46.033Z,26.73
2018-07-24T02:20:14.392Z,25.77
2018-07-24T02:22:42.841Z,27.53
2018-07-24T02:25:11.260Z,27.20
2018-07-24T02:27:39.656Z,27.20
2018-07-24T02:30:08.330Z,26.47
2018-07-24T02:32:36.666Z,28.20
2018-07-24T02:35:05.406Z,28.03
2018-07-24T02:37:33.814Z,29.10
2018-07-24T02:40:02.239Z,28.00
2018-07-24T02:42:30.820Z,29.20
2018-07-24T02:44:59.308Z,29.47
2018-07-24T02:47:27.807Z,29.30
2018-07-24T02:49:56.113Z,28.90
2018-07-24T02:52:24.501Z,29.40
2018-07-24T02:54:52.917Z,29.10
2018-07-24T02:57:21.432Z,28.67
2018-07-24T02:59:49.808Z,28.37
2018-07-24T03:02:18.244Z,27.53
2018-07-24T03:04:46.697Z,27.43
2018-07-24T03:07:15.109Z,29.37
2018-07-24T03:09:43.629Z,29.10
2018-07-24T03:12:12.257Z,29.47
2018-07-24T03:14:40.655Z,28.50
2018-07-24T03:17:08.995Z,27.47
2018-07-24T03:19:37.356Z,28.47
2018-07-24T03:22:05.794Z,28.40
2018-07-24T03:24:34.277Z,29.30
2018-07-24T03:27:02.722Z,28.30
2018-07-24T03:29:31.159Z,29.80
2018-07-24T03:31:59.635Z,28.77
2018-07-24T03:34:28.131Z,29.13
2018-07-24T03:36:56.593Z,28.77
2018-07-24T03:39:24.924Z,29.50
2018-07-24T03:41:53.305Z,28.63
2018-07-24T03:44:22.223Z,26.37
2018-07-24T03:46:51.292Z,26.10
2018-07-24T03:49:19.708Z,25.33
2018-07-24T03:51:48.071Z,24.40
2018-07-24T03:54:16.395Z,25.60
2018-07-24T03:56:44.850Z,25.20
2018-07-24T03:59:13.313Z,25.80
2018-07-24T04:01:41.731Z,23.70
2018-07-24T04:04:10.068Z,24.23
2018-07-24T04:06:38.481Z,23.90
2018-07-24T04:09:08.446Z,25.00
2018-07-24T04:11:36.907Z,25.90
2018-07-24T04:14:05.409Z,25.17
2018-07-24T04:16:33.872Z,27.73
2018-07-24T04:19:02.267Z,26.40
2018-07-24T04:21:30.657Z,27.53
2018-07-24T04:23:58.988Z,26.93
2018-07-24T04:26:27.338Z,27.27
2018-07-24T04:28:55.793Z,26.10
2018-07-24T04:31:24.282Z,25.10
2018-07-24T04:33:52.733Z,25.97
2018-07-24T04:36:21.217Z,25.20
2018-07-24T04:38:49.658Z,26.67
2018-07-24T04:41:18.068Z,25.67
2018-07-24T04:43:46.437Z,27.27
2018-07-24T04:46:14.885Z,27.90
2018-07-24T04:48:43.262Z,27.20
2018-07-24T04:51:11.637Z,27.00
2018-07-24T04:53:40.109Z,24.93
2018-07-24T04:56:08.521Z,25.60
2018-07-24T04:58:36.901Z,25.67
2018-07-24T05:01:05.249Z,26.53
2018-07-24T05:03:33.661Z,24.90
2018-07-24T05:06:02.045Z,25.27
2018-07-24T05:08:30.464Z,24.67
2018-07-24T05:10:58.932Z,23.93
2018-07-24T05:13:27.394Z,23.40
2018-07-24T05:15:55.794Z,24.70
2018-07-24T05:18:24.167Z,23.63
2018-07-24T05:20:52.639Z,22.30
2018-07-24T05:23:21.046Z,18.67
2018-07-24T05:25:49.440Z,17.27
2018-07-24T05:28:17.877Z,16.50
2018-07-24T05:30:46.376Z,16.70
2018-07-24T05:33:14.790Z,17.73
2018-07-24T05:35:43.194Z,16.40
2018-07-24T05:38:11.629Z,17.20
2018-07-24T05:40:40.251Z,16.20
2018-07-24T05:43:08.679Z,16.07
2018-07-24T05:45:37.247Z,16.17
2018-07-24T05:48:05.837Z,14.93
2018-07-24T05:50:34.304Z,15.57
2018-07-24T05:53:02.760Z,15.80
2018-07-24T05:55:31.124Z,16.97
2018-07-24T05:57:59.208Z,16.07
2018-07-24T06:00:27.596Z,16.77
2018-07-24T06:02:56.087Z,16.87
2018-07-24T06:05:24.485Z,15.20
2018-07-24T06:07:53.767Z,15.97
2018-07-24T06:10:22.129Z,15.37
2018-07-24T06:12:50.667Z,15.10
2018-07-24T06:15:19.112Z,15.33
2018-07-24T06:17:47.535Z,14.07
2018-07-24T06:20:15.978Z,15.03
2018-07-24T06:22:44.427Z,14.00
2018-07-24T06:25:12.825Z,13.80
2018-07-24T06:27:41.357Z,13.03
2018-07-24T06:30:09.778Z,13.97
2018-07-24T06:32:38.336Z,14.57
2018-07-24T06:35:06.888Z,13.50
2018-07-24T06:37:35.218Z,14.30
2018-07-24T06:40:03.788Z,15.00
2018-07-24T06:42:32.182Z,14.00
2018-07-24T06:45:00.615Z,14.80
2018-07-24T06:47:29.012Z,15.50
2018-07-24T06:49:57.445Z,13.67
2018-07-24T06:52:25.829Z,14.30
2018-07-24T06:54:54.301Z,15.77
2018-07-24T06:57:22.720Z,14.17
2018-07-24T06:59:51.050Z,13.50
2018-07-24T07:02:19.443Z,13.70
2018-07-24T07:04:47.759Z,14.70
2018-07-24T07:07:16.172Z,13.53
2018-07-24T07:09:44.612Z,14.63
2018-07-24T07:12:13.483Z,14.67
2018-07-24T07:14:41.865Z,13.33
2018-07-24T07:17:10.491Z,13.07
2018-07-24T07:19:38.963Z,13.53
2018-07-24T07:22:07.298Z,12.93
2018-07-24T07:24:35.706Z,12.80
2018-07-24T07:27:04.130Z,12.40
2018-07-24T07:29:32.496Z,13.70
2018-07-24T07:32:01.013Z,13.60
2018-07-24T07:34:29.379Z,12.07
2018-07-24T07:36:57.773Z,13.53
2018-07-24T07:39:26.166Z,12.23
2018-07-24T07:41:54.575Z,13.27
2018-07-24T07:44:23.108Z,11.33
2018-07-24T07:46:51.559Z,13.77
2018-07-24T07:49:20.044Z,12.17
2018-07-24T07:51:48.477Z,12.77
2018-07-24T07:54:16.848Z,11.97
2018-07-24T07:56:45.263Z,12.00
2018-07-24T07:59:13.716Z,12.40
2018-07-24T08:01:42.050Z,12.67
2018-07-24T08:04:10.498Z,10.93
2018-07-24T08:06:39.048Z,11.27
2018-07-24T08:09:09.033Z,10.93
2018-07-24T08:11:37.499Z,10.30
2018-07-24T08:14:05.929Z,11.00
2018-07-24T08:16:34.393Z,10.53
2018-07-24T08:19:02.870Z,10.20
2018-07-24T08:21:31.386Z,9.90
2018-07-24T08:23:59.716Z,10.10
2018-07-24T08:26:28.141Z,10.20
2018-07-24T08:28:56.518Z,10.37
2018-07-24T08:31:24.851Z,10.10
2018-07-24T08:33:53.327Z,10.20
2018-07-24T08:36:21.825Z,10.03
2018-07-24T08:38:50.243Z,13.33
2018-07-24T08:41:18.709Z,11.60
2018-07-24T08:43:47.240Z,10.13
2018-07-24T08:46:15.642Z,10.27
2018-07-24T08:48:44.140Z,10.20
2018-07-24T08:51:12.526Z,8.80
2018-07-24T08:53:41.305Z,8.87
2018-07-24T08:56:09.403Z,9.13
2018-07-24T08:58:37.892Z,9.50
2018-07-24T09:01:06.302Z,9.20
2018-07-24T09:03:34.757Z,9.40
2018-07-24T09:06:03.160Z,13.90
2018-07-24T09:08:31.532Z,8.70
2018-07-24T09:11:00.253Z,8.50
2018-07-24T09:13:28.629Z,9.97
2018-07-24T09:15:57.056Z,9.03
2018-07-24T09:18:25.423Z,8.40
2018-07-24T09:20:53.986Z,8.40
2018-07-24T09:23:22.948Z,8.77
2018-07-24T09:25:51.298Z,11.10
2018-07-24T09:28:19.668Z,8.70
2018-07-24T09:30:48.055Z,9.00
2018-07-24T09:33:16.387Z,8.33
2018-07-24T09:35:44.759Z,8.50
2018-07-24T09:38:13.158Z,9.43
2018-07-24T09:40:41.502Z,8.80
2018-07-24T09:43:09.846Z,9.47
2018-07-24T09:45:38.231Z,9.07
2018-07-24T09:48:06.602Z,9.50
2018-07-24T09:50:34.963Z,8.77
2018-07-24T09:53:03.331Z,9.23
2018-07-24T09:55:31.678Z,9.33
2018-07-24T09:58:00.104Z,9.47
2018-07-24T10:00:33.701Z,9.53
2018-07-24T10:03:02.073Z,9.17
2018-07-24T10:05:31.018Z,10.90
2018-07-24T10:07:59.315Z,11.13
2018-07-24T10:10:27.761Z,9.80
2018-07-24T10:12:56.177Z,9.53
2018-07-24T10:15:24.476Z,9.53
2018-07-24T10:17:52.887Z,8.90
2018-07-24T10:20:21.283Z,8.93
2018-07-24T10:22:49.639Z,9.80
2018-07-24T10:25:17.992Z,9.00
2018-07-24T10:27:46.313Z,8.70
2018-07-24T10:30:14.724Z,8.97
2018-07-24T10:32:43.131Z,8.53
2018-07-24T10:35:11.515Z,8.40
2018-07-24T10:37:39.899Z,8.03
2018-07-24T10:40:08.590Z,9.33
2018-07-24T10:42:37.103Z,10.97
2018-07-24T10:45:05.592Z,9.00
2018-07-24T10:47:33.881Z,9.10
2018-07-24T10:50:02.410Z,7.90
2018-07-24T10:52:30.869Z,7.67
2018-07-24T10:54:59.197Z,8.67
2018-07-24T10:57:27.643Z,8.77
2018-07-24T10:59:55.986Z,9.13
2018-07-24T11:02:24.566Z,8.03
2018-07-24T11:04:53.047Z,7.00
2018-07-24T11:07:21.509Z,7.97
2018-07-24T11:09:50.829Z,7.57
2018-07-24T11:12:19.307Z,8.60
2018-07-24T11:14:47.804Z,8.30
2018-07-24T11:17:16.385Z,8.53
2018-07-24T11:19:44.831Z,7.40
2018-07-24T11:22:13.272Z,7.20
2018-07-24T11:24:41.689Z,7.67
2018-07-24T11:27:10.005Z,6.73
2018-07-24T11:29:38.582Z,6.93
2018-07-24T11:32:06.987Z,7.30
2018-07-24T11:34:35.393Z,7.10
2018-07-24T11:37:03.805Z,8.00
2018-07-24T11:39:32.160Z,7.80
2018-07-24T11:42:00.646Z,6.93
2018-07-24T11:44:29.022Z,7.03
2018-07-24T11:46:57.342Z,7.70
2018-07-24T11:49:25.757Z,7.40
2018-07-24T11:51:54.226Z,7.63
2018-07-24T11:54:22.501Z,7.13
2018-07-24T11:56:50.991Z,6.63
2018-07-24T11:59:19.357Z,7.90
2018-07-24T12:01:47.795Z,7.70
2018-07-24T12:04:16.197Z,8.10
2018-07-24T12:06:44.600Z,7.23
2018-07-24T12:09:13.716Z,7.43
2018-07-24T12:11:42.692Z,6.87
2018-07-24T12:14:11.270Z,7.60
2018-07-24T12:16:39.750Z,7.60
2018-07-24T12:19:09.085Z,7.93
2018-07-24T12:21:37.402Z,7.27
2018-07-24T12:24:05.774Z,7.80
2018-07-24T12:26:34.197Z,7.13
2018-07-24T12:29:02.780Z,7.73
2018-07-24T12:31:31.209Z,7.73
2018-07-24T12:33:59.627Z,8.07
2018-07-24T12:36:28.091Z,8.00
2018-07-24T12:38:56.501Z,7.47
2018-07-24T12:41:24.840Z,7.73
2018-07-24T12:43:53.267Z,7.83
2018-07-24T12:46:21.635Z,7.20
2018-07-24T12:48:50.040Z,7.27
2018-07-24T12:51:18.441Z,7.47
2018-07-24T12:53:47.026Z,7.03
2018-07-24T12:56:15.612Z,8.17
2018-07-24T12:58:43.993Z,7.67
2018-07-24T13:01:12.444Z,7.00
2018-07-24T13:03:40.825Z,7.47
2018-07-24T13:06:09.217Z,7.33
2018-07-24T13:08:37.600Z,7.73
2018-07-24T13:11:06.206Z,7.00
2018-07-24T13:13:34.474Z,7.20
2018-07-24T13:16:02.857Z,7.00
2018-07-24T13:18:31.434Z,7.03
2018-07-24T13:20:59.976Z,7.07
2018-07-24T13:23:28.428Z,7.03
2018-07-24T13:25:56.850Z,7.23
2018-07-24T13:28:25.295Z,7.10
2018-07-24T13:30:53.761Z,6.50
2018-07-24T13:33:22.328Z,6.60
2018-07-24T13:35:50.791Z,7.50
2018-07-24T13:38:19.277Z,6.70
2018-07-24T13:40:47.705Z,6.37
2018-07-24T13:43:16.071Z,6.97
2018-07-24T13:45:44.559Z,6.80
2018-07-24T13:48:13.012Z,6.50
2018-07-24T13:50:41.464Z,6.77
2018-07-24T13:53:09.837Z,6.30
2018-07-24T13:55:38.229Z,7.07
2018-07-24T13:58:06.616Z,7.20
2018-07-24T14:00:35.076Z,6.63
2018-07-24T14:03:03.508Z,7.30
2018-07-24T14:05:31.919Z,6.43
2018-07-24T14:08:00.310Z,7.23
2018-07-24T14:10:28.706Z,7.13
2018-07-24T14:12:57.125Z,6.83
2018-07-24T14:15:25.504Z,6.23
2018-07-24T14:17:54.012Z,7.00
2018-07-24T14:20:22.375Z,6.03
2018-07-24T14:22:50.777Z,5.83
2018-07-24T14:25:19.148Z,7.03
2018-07-24T14:27:47.546Z,6.13
2018-07-24T14:30:15.986Z,5.80
2018-07-24T14:32:44.463Z,5.90
2018-07-24T14:35:12.866Z,7.43
2018-07-24T14:37:41.246Z,6.10
2018-07-24T14:40:09.683Z,6.80
2018-07-24T14:42:38.128Z,6.57
2018-07-24T14:45:06.757Z,7.10
2018-07-24T14:47:34.833Z,6.33
2018-07-24T14:50:03.254Z,7.00
2018-07-24T14:52:31.733Z,6.30
2018-07-24T14:55:00.109Z,6.70
2018-07-24T14:57:28.485Z,6.30
2018-07-24T14:59:56.850Z,6.13
2018-07-24T15:02:25.271Z,6.07
2018-07-24T15:04:53.659Z,6.13
2018-07-24T15:07:22.039Z,6.40
2018-07-24T15:09:50.444Z,6.90
2018-07-24T15:12:18.863Z,6.80
2018-07-24T15:14:47.245Z,6.87
2018-07-24T15:17:15.675Z,6.80
2018-07-24T15:19:44.080Z,6.93
2018-07-24T15:22:12.493Z,6.50
2018-07-24T15:24:40.900Z,5.83
2018-07-24T15:27:09.358Z,6.20
2018-07-24T15:29:37.724Z,5.77
2018-07-24T15:32:06.173Z,6.83
2018-07-24T15:34:34.904Z,6.70
2018-07-24T15:37:03.139Z,6.43
2018-07-24T15:39:31.456Z,7.37
2018-07-24T15:41:59.924Z,7.17
2018-07-24T15:44:28.016Z,6.60
2018-07-24T15:46:56.430Z,7.43
2018-07-24T15:49:24.755Z,7.10
2018-07-24T15:51:53.131Z,6.57
2018-07-24T15:54:21.521Z,7.10
2018-07-24T15:56:50.009Z,7.47
2018-07-24T15:59:18.453Z,6.50
2018-07-24T16:01:46.868Z,6.83
2018-07-24T16:04:15.254Z,6.50
2018-07-24T16:06:43.771Z,7.50
2018-07-24T16:09:13.388Z,6.97
2018-07-24T16:11:42.102Z,7.23
2018-07-24T16:14:11.024Z,7.27
2018-07-24T16:16:39.694Z,6.93
2018-07-24T16:19:08.134Z,7.00
2018-07-24T16:21:36.584Z,6.50
2018-07-24T16:24:04.948Z,7.13
2018-07-24T16:26:33.377Z,6.60
2018-07-24T16:29:01.736Z,8.40
2018-07-24T16:31:30.239Z,7.70
2018-07-24T16:33:58.591Z,6.80
2018-07-24T16:36:26.955Z,7.50
2018-07-24T16:38:55.363Z,7.40
2018-07-24T16:41:23.799Z,6.27
2018-07-24T16:43:52.191Z,7.70
2018-07-24T16:46:20.506Z,6.33
2018-07-24T16:48:48.803Z,7.03
2018-07-24T16:51:17.229Z,6.30
2018-07-24T16:53:45.657Z,6.83
2018-07-24T16:56:14.101Z,7.83
2018-07-24T16:58:42.504Z,7.10
2018-07-24T17:01:10.913Z,7.60
2018-07-24T17:03:39.341Z,6.87
2018-07-24T17:06:08.223Z,7.10
2018-07-24T17:08:36.553Z,7.90
2018-07-24T17:11:04.925Z,7.53
2018-07-24T17:13:33.517Z,7.77
2018-07-24T17:16:02.105Z,7.90
2018-07-24T17:18:30.485Z,7.87
2018-07-24T17:20:59.212Z,8.03
2018-07-24T17:23:27.756Z,7.80
2018-07-24T17:25:56.117Z,6.53
2018-07-24T17:28:24.566Z,6.80
2018-07-24T17:30:53.044Z,7.27
2018-07-24T17:33:21.393Z,7.27
2018-07-24T17:35:49.755Z,6.20
2018-07-24T17:38:18.136Z,6.77
2018-07-24T17:40:46.599Z,6.97
2018-07-24T17:43:14.932Z,6.93
2018-07-24T17:45:43.289Z,7.13
2018-07-24T17:48:11.816Z,7.30
2018-07-24T17:50:40.074Z,6.90
2018-07-24T17:53:08.460Z,6.93
2018-07-24T17:55:36.861Z,7.77
2018-07-24T17:58:05.246Z,7.17
2018-07-24T18:00:33.697Z,7.77
2018-07-24T18:03:02.267Z,8.20
2018-07-24T18:05:30.727Z,7.30
2018-07-24T18:07:59.200Z,6.90
2018-07-24T18:10:27.558Z,7.70
2018-07-24T18:12:55.991Z,7.90
2018-07-24T18:15:24.535Z,7.00
2018-07-24T18:17:52.878Z,7.70
2018-07-24T18:20:21.272Z,7.60
2018-07-24T18:22:49.735Z,6.77
2018-07-24T18:25:18.211Z,7.93
2018-07-24T18:27:46.661Z,7.80
2018-07-24T18:30:15.031Z,6.90
2018-07-24T18:32:43.478Z,7.20
2018-07-24T18:35:11.871Z,7.63
2018-07-24T18:37:40.269Z,7.77
2018-07-24T18:40:08.684Z,7.97
2018-07-24T18:42:37.061Z,8.20
2018-07-24T18:45:05.817Z,8.43
2018-07-24T18:47:34.230Z,8.93
2018-07-24T18:50:02.586Z,8.23
2018-07-24T18:52:31.066Z,7.33
2018-07-24T18:54:59.441Z,8.07
2018-07-24T18:57:28.540Z,9.47
2018-07-24T18:59:56.863Z,10.33
2018-07-24T19:02:25.286Z,9.60
2018-07-24T19:04:53.682Z,10.80
2018-07-24T19:07:22.300Z,8.37
2018-07-24T19:09:50.735Z,8.30
2018-07-24T19:12:19.119Z,8.40
2018-07-24T19:14:47.573Z,8.07
2018-07-24T19:17:16.001Z,9.53
2018-07-24T19:19:44.345Z,8.13
2018-07-24T19:22:12.946Z,8.93
2018-07-24T19:24:41.375Z,10.30
2018-07-24T19:27:09.787Z,8.33
2018-07-24T19:29:38.231Z,9.20
2018-07-24T19:32:06.709Z,9.60
2018-07-24T19:34:35.105Z,9.07
2018-07-24T19:37:03.636Z,10.40
2018-07-24T19:39:31.957Z,9.00
2018-07-24T19:42:00.271Z,9.50
2018-07-24T19:44:28.621Z,10.03
2018-07-24T19:46:56.898Z,10.60
2018-07-24T19:49:25.339Z,11.60
2018-07-24T19:51:53.751Z,12.03
2018-07-24T19:54:22.088Z,11.53
2018-07-24T19:56:50.453Z,11.97
2018-07-24T19:59:18.829Z,12.17
2018-07-24T20:01:47.197Z,12.13
2018-07-24T20:04:15.543Z,11.27
2018-07-24T20:06:44.757Z,12.60
2018-07-24T20:09:13.317Z,13.60
2018-07-24T20:11:41.755Z,12.47
2018-07-24T20:14:10.216Z,12.40
2018-07-24T20:16:38.740Z,12.60
2018-07-24T20:19:07.097Z,13.53
2018-07-24T20:21:35.597Z,12.63
2018-07-24T20:24:03.957Z,13.20
2018-07-24T20:26:32.394Z,12.63
2018-07-24T20:29:00.490Z,13.53
2018-07-24T20:31:28.942Z,12.90
2018-07-24T20:33:57.407Z,12.37
2018-07-24T20:36:25.877Z,18.47
2018-07-24T20:38:54.633Z,14.60
2018-07-24T20:41:23.174Z,14.13
2018-07-24T20:43:51.485Z,12.63
2018-07-24T20:46:19.915Z,13.93
2018-07-24T20:48:48.280Z,13.57
2018-07-24T20:51:16.661Z,13.40
2018-07-24T20:53:45.089Z,13.13
2018-07-24T20:56:13.450Z,13.80
2018-07-24T20:58:41.948Z,13.97
2018-07-24T21:01:10.340Z,12.73
2018-07-24T21:03:38.743Z,13.33
2018-07-24T21:06:07.232Z,14.13
2018-07-24T21:08:35.609Z,14.63
2018-07-24T21:11:04.287Z,13.60
2018-07-24T21:13:32.764Z,13.30
2018-07-24T21:16:01.166Z,13.07
2018-07-24T21:18:29.505Z,13.40
2018-07-24T21:20:58.029Z,12.70
2018-07-24T21:23:26.360Z,13.80
2018-07-24T21:25:54.702Z,13.93
2018-07-24T21:28:23.142Z,14.80
2018-07-24T21:30:51.883Z,14.23
2018-07-24T21:33:20.478Z,13.13
2018-07-24T21:35:49.019Z,14.60
2018-07-24T21:38:17.393Z,13.07
2018-07-24T21:40:45.736Z,14.40
2018-07-24T21:43:14.158Z,15.03
2018-07-24T21:45:42.681Z,14.97
2018-07-24T21:48:11.075Z,14.73
2018-07-24T21:50:39.422Z,14.07
2018-07-24T21:53:08.259Z,14.37
2018-07-24T21:55:36.654Z,14.17
2018-07-24T21:58:05.281Z,14.87
2018-07-24T22:00:36.100Z,16.10
2018-07-24T22:03:05.827Z,15.00
2018-07-24T22:05:34.390Z,15.67
2018-07-24T22:08:02.837Z,15.20
2018-07-24T22:10:31.313Z,14.93
2018-07-24T22:13:00.095Z,14.30
2018-07-24T22:15:28.569Z,15.03
2018-07-24T22:17:57.689Z,14.87
2018-07-24T22:20:26.168Z,15.30
2018-07-24T22:22:54.538Z,15.97
2018-07-24T22:25:22.986Z,15.50
2018-07-24T22:27:51.324Z,14.77
2018-07-24T22:30:19.712Z,15.63
2018-07-24T22:32:48.147Z,14.87
2018-07-24T22:35:16.627Z,13.87
2018-07-24T22:37:45.093Z,14.47
2018-07-24T22:40:13.576Z,14.40
2018-07-24T22:42:42.269Z,15.27
2018-07-24T22:45:10.572Z,13.70
2018-07-24T22:47:39.108Z,15.37
2018-07-24T22:50:07.561Z,14.27
2018-07-24T22:52:36.706Z,14.27
2018-07-24T22:55:05.817Z,14.83
2018-07-24T22:57:34.425Z,15.23
2018-07-24T23:00:03.203Z,15.80
2018-07-24T23:02:31.623Z,14.87
2018-07-24T23:05:00.141Z,13.37
2018-07-24T23:07:28.540Z,14.33
2018-07-24T23:09:56.890Z,15.53
2018-07-24T23:12:25.369Z,14.30
2018-07-24T23:14:54.767Z,15.23
2018-07-24T23:17:22.874Z,14.00
2018-07-24T23:19:51.362Z,14.50
2018-07-24T23:22:19.930Z,14.63
2018-07-24T23:24:48.396Z,15.17
2018-07-24T23:27:16.809Z,14.13
2018-07-24T23:29:45.532Z,14.80
2018-07-24T23:32:13.976Z,15.60
2018-07-24T23:34:42.405Z,13.80
2018-07-24T23:37:10.772Z,14.73
2018-07-24T23:39:39.375Z,15.07
2018-07-24T23:42:07.829Z,14.17
2018-07-24T23:44:36.315Z,15.33
2018-07-24T23:47:04.696Z,14.30
2018-07-24T23:49:34.898Z,14.03
2018-07-24T23:52:03.490Z,14.03
2018-07-24T23:54:32.013Z,14.70
2018-07-24T23:57:00.494Z,15.33
2018-07-24T23:59:29.066Z,14.90
